createdAt,value
2018-12-17T00:00:38.184Z,94.80
2018-12-17T00:01:17.720Z,94.80
2018-12-17T00:01:57.236Z,94.80
2018-12-17T00:02:36.565Z,94.80
2018-12-17T00:03:16.483Z,94.70
2018-12-17T00:03:56.179Z,94.70
2018-12-17T00:04:35.450Z,94.70
2018-12-17T00:05:14.059Z,94.70
2018-12-17T00:05:55.806Z,94.70
2018-12-17T00:06:35.539Z,94.70
2018-12-17T00:07:15.308Z,94.70
2018-12-17T00:07:58.154Z,94.70
2018-12-17T00:08:36.519Z,94.80
2018-12-17T00:09:15.652Z,94.80
2018-12-17T00:09:55.120Z,94.80
2018-12-17T00:10:34.358Z,94.90
2018-12-17T00:11:12.739Z,94.80
2018-12-17T00:11:51.397Z,95.00
2018-12-17T00:12:30.454Z,95.00
2018-12-17T00:13:09.048Z,95.00
2018-12-17T00:13:47.625Z,95.00
2018-12-17T00:14:28.911Z,95.00
2018-12-17T00:15:07.639Z,95.00
2018-12-17T00:15:46.590Z,95.00
2018-12-17T00:16:26.801Z,95.00
2018-12-17T00:17:05.923Z,95.00
2018-12-17T00:17:44.283Z,95.00
2018-12-17T00:18:23.096Z,95.00
2018-12-17T00:19:02.155Z,95.00
2018-12-17T00:19:41.159Z,95.00
2018-12-17T00:20:20.728Z,95.00
2018-12-17T00:21:04.733Z,95.00
2018-12-17T00:21:45.600Z,95.00
2018-12-17T00:22:30.953Z,94.80
2018-12-17T00:23:10.432Z,95.00
2018-12-17T00:23:48.928Z,95.10
2018-12-17T00:24:27.731Z,95.10
2018-12-17T00:25:07.037Z,95.10
2018-12-17T00:25:53.604Z,95.10
2018-12-17T00:26:32.314Z,95.20
2018-12-17T00:27:11.110Z,95.30
2018-12-17T00:27:49.433Z,95.30
2018-12-17T00:28:28.633Z,95.40
2018-12-17T00:29:07.164Z,95.40
2018-12-17T00:29:50.129Z,95.40
2018-12-17T00:30:29.332Z,95.30
2018-12-17T00:31:07.859Z,95.40
2018-12-17T00:31:47.113Z,95.40
2018-12-17T00:32:26.630Z,95.40
2018-12-17T00:33:06.322Z,95.30
2018-12-17T00:33:44.792Z,95.30
2018-12-17T00:34:27.030Z,95.30
2018-12-17T00:35:05.364Z,95.30
2018-12-17T00:35:43.887Z,95.30
2018-12-17T00:36:23.979Z,95.30
2018-12-17T00:37:03.584Z,95.30
2018-12-17T00:37:45.399Z,95.30
2018-12-17T00:38:28.967Z,95.40
2018-12-17T00:39:09.998Z,95.40
2018-12-17T00:39:48.422Z,95.40
2018-12-17T00:40:32.998Z,95.40
2018-12-17T00:41:11.507Z,95.50
2018-12-17T00:41:50.154Z,95.50
2018-12-17T00:42:33.208Z,95.50
2018-12-17T00:43:12.858Z,95.50
2018-12-17T00:43:54.633Z,95.50
2018-12-17T00:44:33.177Z,95.50
2018-12-17T00:45:16.594Z,95.50
2018-12-17T00:45:57.294Z,95.50
2018-12-17T00:46:36.288Z,95.50
2018-12-17T00:47:14.890Z,95.50
2018-12-17T00:47:53.360Z,95.50
2018-12-17T00:48:31.742Z,95.50
2018-12-17T00:49:10.104Z,95.60
2018-12-17T00:49:54.942Z,95.60
2018-12-17T00:50:34.303Z,95.60
2018-12-17T00:51:14.292Z,95.50
2018-12-17T00:51:59.341Z,95.40
2018-12-17T00:52:39.346Z,95.50
2018-12-17T00:53:19.376Z,95.40
2018-12-17T00:53:57.863Z,95.40
2018-12-17T00:54:37.037Z,95.40
2018-12-17T00:55:16.277Z,95.40
2018-12-17T00:55:55.045Z,95.40
2018-12-17T00:56:33.699Z,95.40
2018-12-17T00:57:14.224Z,95.30
2018-12-17T00:57:52.635Z,95.20
2018-12-17T00:58:35.946Z,95.10
2018-12-17T00:59:14.995Z,94.90
2018-12-17T00:59:53.279Z,94.80
2018-12-17T01:00:31.865Z,94.80
2018-12-17T01:01:14.170Z,94.70
2018-12-17T01:01:53.403Z,94.60
2018-12-17T01:02:31.918Z,94.50
2018-12-17T01:03:10.581Z,94.20
2018-12-17T01:03:49.367Z,94.10
2018-12-17T01:04:31.564Z,94.10
2018-12-17T01:05:14.580Z,94.20
2018-12-17T01:05:53.105Z,94.30
2018-12-17T01:06:34.204Z,94.30
2018-12-17T01:07:15.561Z,94.20
2018-12-17T01:07:56.003Z,94.70
2018-12-17T01:08:34.936Z,94.80
2018-12-17T01:09:13.638Z,94.90
2018-12-17T01:10:00.062Z,95.00
2018-12-17T01:10:38.331Z,95.00
2018-12-17T01:11:16.595Z,94.90
2018-12-17T01:11:55.119Z,95.00
2018-12-17T01:12:33.865Z,94.90
2018-12-17T01:13:12.459Z,94.90
2018-12-17T01:13:50.884Z,94.90
2018-12-17T01:14:31.267Z,95.00
2018-12-17T01:15:10.657Z,94.90
2018-12-17T01:15:49.438Z,94.80
2018-12-17T01:16:28.190Z,94.80
2018-12-17T01:17:08.823Z,94.90
2018-12-17T01:17:47.404Z,94.80
2018-12-17T01:18:25.557Z,94.90
2018-12-17T01:19:03.855Z,94.90
2018-12-17T01:19:47.823Z,94.90
2018-12-17T01:20:26.773Z,94.90
2018-12-17T01:21:05.559Z,94.90
2018-12-17T01:21:49.000Z,94.90
2018-12-17T01:22:27.561Z,94.80
2018-12-17T01:23:06.907Z,94.60
2018-12-17T01:23:47.156Z,94.60
2018-12-17T01:24:25.564Z,94.60
2018-12-17T01:25:03.834Z,94.50
2018-12-17T01:25:44.898Z,94.40
2018-12-17T01:26:23.552Z,94.50
2018-12-17T01:27:01.915Z,94.60
2018-12-17T01:27:40.809Z,94.50
2018-12-17T01:28:22.273Z,94.40
2018-12-17T01:29:01.342Z,94.40
2018-12-17T01:29:40.028Z,94.70
2018-12-17T01:30:20.580Z,94.70
2018-12-17T01:30:59.377Z,94.70
2018-12-17T01:31:38.139Z,94.60
2018-12-17T01:32:16.412Z,94.50
2018-12-17T01:32:55.554Z,94.50
2018-12-17T01:33:33.952Z,94.40
2018-12-17T01:34:12.643Z,94.30
2018-12-17T01:34:53.032Z,94.50
2018-12-17T01:35:31.907Z,94.50
2018-12-17T01:36:10.325Z,94.50
2018-12-17T01:36:48.652Z,94.40
2018-12-17T01:37:27.207Z,94.30
2018-12-17T01:38:07.919Z,94.50
2018-12-17T01:38:47.194Z,94.50
2018-12-17T01:39:26.380Z,94.60
2018-12-17T01:40:04.872Z,94.90
2018-12-17T01:40:46.807Z,94.80
2018-12-17T01:41:25.524Z,94.80
2018-12-17T01:42:05.366Z,95.00
2018-12-17T01:42:43.785Z,95.40
2018-12-17T01:43:22.056Z,95.20
2018-12-17T01:44:00.539Z,95.20
2018-12-17T01:44:39.680Z,95.10
2018-12-17T01:45:19.011Z,95.00
2018-12-17T01:45:58.425Z,95.00
2018-12-17T01:46:38.012Z,95.00
2018-12-17T01:47:16.486Z,95.50
2018-12-17T01:47:55.108Z,95.20
2018-12-17T01:48:33.503Z,95.10
2018-12-17T01:49:11.528Z,95.10
2018-12-17T01:49:50.903Z,95.00
2018-12-17T01:50:30.356Z,95.20
2018-12-17T01:51:10.438Z,95.10
2018-12-17T01:51:49.072Z,95.00
2018-12-17T01:52:28.135Z,95.30
2018-12-17T01:53:06.365Z,95.30
2018-12-17T01:53:47.508Z,95.20
2018-12-17T01:54:25.838Z,95.10
2018-12-17T01:55:04.298Z,95.00
2018-12-17T01:55:42.676Z,94.80
2018-12-17T01:56:21.312Z,94.80
2018-12-17T01:57:05.301Z,94.80
2018-12-17T01:57:43.800Z,94.80
2018-12-17T01:58:28.978Z,94.70
2018-12-17T01:59:06.956Z,94.70
2018-12-17T01:59:45.847Z,94.70
2018-12-17T02:00:24.493Z,94.70
2018-12-17T02:01:04.992Z,94.80
2018-12-17T02:01:43.363Z,94.90
2018-12-17T02:02:21.907Z,95.00
2018-12-17T02:03:00.612Z,95.00
2018-12-17T02:03:39.237Z,94.80
2018-12-17T02:04:17.714Z,94.80
2018-12-17T02:04:56.457Z,94.70
2018-12-17T02:05:35.427Z,94.70
2018-12-17T02:06:14.396Z,94.60
2018-12-17T02:06:56.023Z,94.60
2018-12-17T02:07:39.595Z,94.60
2018-12-17T02:08:17.817Z,94.50
2018-12-17T02:09:00.881Z,94.50
2018-12-17T02:09:38.940Z,94.50
2018-12-17T02:10:17.086Z,94.40
2018-12-17T02:10:55.746Z,94.30
2018-12-17T02:11:35.637Z,94.50
2018-12-17T02:12:15.102Z,94.60
2018-12-17T02:12:53.903Z,94.80
2018-12-17T02:13:33.283Z,94.90
2018-12-17T02:14:11.715Z,95.00
2018-12-17T02:14:51.219Z,95.00
2018-12-17T02:15:31.765Z,94.90
2018-12-17T02:16:10.313Z,94.80
2018-12-17T02:16:48.983Z,94.70
2018-12-17T02:17:28.796Z,94.90
2018-12-17T02:18:10.677Z,94.80
2018-12-17T02:18:50.063Z,94.90
2018-12-17T02:19:28.904Z,95.00
2018-12-17T02:20:08.309Z,94.90
2018-12-17T02:20:46.756Z,95.00
2018-12-17T02:21:25.468Z,95.00
2018-12-17T02:22:08.649Z,95.20
2018-12-17T02:22:48.049Z,95.10
2018-12-17T02:23:26.876Z,95.10
2018-12-17T02:24:05.201Z,95.10
2018-12-17T02:24:47.961Z,95.10
2018-12-17T02:25:26.117Z,95.10
2018-12-17T02:26:05.775Z,95.10
2018-12-17T02:26:44.769Z,95.00
2018-12-17T02:27:23.446Z,95.00
2018-12-17T02:28:02.951Z,95.10
2018-12-17T02:28:46.433Z,95.10
2018-12-17T02:29:25.279Z,94.80
2018-12-17T02:30:04.095Z,94.60
2018-12-17T02:30:43.509Z,94.70
2018-12-17T02:31:22.461Z,94.90
2018-12-17T02:32:00.564Z,94.90
2018-12-17T02:32:38.969Z,94.90
2018-12-17T02:33:18.010Z,95.20
2018-12-17T02:34:02.017Z,94.80
2018-12-17T02:34:40.596Z,94.70
2018-12-17T02:35:19.174Z,94.70
2018-12-17T02:35:58.652Z,94.90
2018-12-17T02:36:40.245Z,95.00
2018-12-17T02:37:18.786Z,94.90
2018-12-17T02:37:59.062Z,94.80
2018-12-17T02:38:38.413Z,94.90
2018-12-17T02:39:17.035Z,94.70
2018-12-17T02:39:55.590Z,94.60
2018-12-17T02:40:37.292Z,94.70
2018-12-17T02:41:16.376Z,94.90
2018-12-17T02:41:55.778Z,94.60
2018-12-17T02:42:35.680Z,94.50
2018-12-17T02:43:14.133Z,94.50
2018-12-17T02:43:53.244Z,94.50
2018-12-17T02:44:33.961Z,94.50
2018-12-17T02:45:12.575Z,94.40
2018-12-17T02:45:50.797Z,94.40
2018-12-17T02:46:32.592Z,94.30
2018-12-17T02:47:14.327Z,94.30
2018-12-17T02:47:54.097Z,94.30
2018-12-17T02:48:33.128Z,94.40
2018-12-17T02:49:12.023Z,94.60
2018-12-17T02:49:50.118Z,94.60
2018-12-17T02:50:29.102Z,94.60
2018-12-17T02:51:07.624Z,94.60
2018-12-17T02:51:48.510Z,94.60
2018-12-17T02:52:26.688Z,94.80
2018-12-17T02:53:04.794Z,94.80
2018-12-17T02:53:43.015Z,94.70
2018-12-17T02:54:22.236Z,94.60
2018-12-17T02:55:00.837Z,94.50
2018-12-17T02:55:42.305Z,94.60
2018-12-17T02:56:20.693Z,94.70
2018-12-17T02:56:59.369Z,94.60
2018-12-17T02:57:39.601Z,94.70
2018-12-17T02:58:21.882Z,94.70
2018-12-17T02:59:01.009Z,94.70
2018-12-17T02:59:40.408Z,94.70
2018-12-17T03:00:18.922Z,94.60
2018-12-17T03:00:57.329Z,94.60
2018-12-17T03:01:36.055Z,94.50
2018-12-17T03:02:15.963Z,94.50
2018-12-17T03:02:54.825Z,94.60
2018-12-17T03:03:32.933Z,94.50
2018-12-17T03:04:11.556Z,94.50
2018-12-17T03:04:50.173Z,94.60
2018-12-17T03:05:28.924Z,94.50
2018-12-17T03:06:07.773Z,94.40
2018-12-17T03:06:46.367Z,94.60
2018-12-17T03:07:24.589Z,94.30
2018-12-17T03:08:04.017Z,94.30
2018-12-17T03:08:45.562Z,94.30
2018-12-17T03:09:24.606Z,94.30
2018-12-17T03:10:02.971Z,94.20
2018-12-17T03:10:48.557Z,94.10
2018-12-17T03:11:27.043Z,94.10
2018-12-17T03:12:05.214Z,94.00
2018-12-17T03:12:44.103Z,94.00
2018-12-17T03:13:23.133Z,93.80
2018-12-17T03:14:02.030Z,93.90
2018-12-17T03:14:41.083Z,93.80
2018-12-17T03:15:21.672Z,93.70
2018-12-17T03:16:00.745Z,93.80
2018-12-17T03:16:39.289Z,93.80
2018-12-17T03:17:20.554Z,93.80
2018-12-17T03:18:10.678Z,93.90
2018-12-17T03:18:51.701Z,93.80
2018-12-17T03:19:33.565Z,93.80
2018-12-17T03:20:19.662Z,93.60
2018-12-17T03:20:57.831Z,93.60
2018-12-17T03:21:36.256Z,93.60
2018-12-17T03:22:14.556Z,93.50
2018-12-17T03:22:52.820Z,93.50
2018-12-17T03:23:31.369Z,93.50
2018-12-17T03:24:09.478Z,93.20
2018-12-17T03:24:47.898Z,93.00
2018-12-17T03:25:26.229Z,93.20
2018-12-17T03:26:05.431Z,93.60
2018-12-17T03:26:44.302Z,93.60
2018-12-17T03:27:23.928Z,93.70
2018-12-17T03:28:02.384Z,93.70
2018-12-17T03:28:51.748Z,93.60
2018-12-17T03:29:28.829Z,93.60
2018-12-17T03:30:07.663Z,93.60
2018-12-17T03:30:48.636Z,93.40
2018-12-17T03:31:27.128Z,93.40
2018-12-17T03:32:05.714Z,93.40
2018-12-17T03:32:44.327Z,93.30
2018-12-17T03:33:22.965Z,93.30
2018-12-17T03:34:01.373Z,93.20
2018-12-17T03:34:39.995Z,93.20
2018-12-17T03:35:18.401Z,93.30
2018-12-17T03:35:56.617Z,92.90
2018-12-17T03:36:39.557Z,92.90
2018-12-17T03:37:20.032Z,92.80
2018-12-17T03:37:58.459Z,92.80
2018-12-17T03:38:36.678Z,92.80
2018-12-17T03:39:15.276Z,92.70
2018-12-17T03:39:53.924Z,92.60
2018-12-17T03:40:32.742Z,92.50
2018-12-17T03:41:14.891Z,92.50
2018-12-17T03:41:53.680Z,92.50
2018-12-17T03:42:32.259Z,92.40
2018-12-17T03:43:15.441Z,92.30
2018-12-17T03:43:53.975Z,92.20
2018-12-17T03:44:33.177Z,92.00
2018-12-17T03:45:13.212Z,92.00
2018-12-17T03:45:51.990Z,92.10
2018-12-17T03:46:30.518Z,92.00
2018-12-17T03:47:08.953Z,92.00
2018-12-17T03:47:52.622Z,92.00
2018-12-17T03:48:31.981Z,92.10
2018-12-17T03:49:11.190Z,92.00
2018-12-17T03:49:51.762Z,92.00
2018-12-17T03:50:30.129Z,91.80
2018-12-17T03:51:09.210Z,91.80
2018-12-17T03:51:47.708Z,91.80
2018-12-17T03:52:26.206Z,91.80
2018-12-17T03:53:04.659Z,91.80
2018-12-17T03:53:45.430Z,91.90
2018-12-17T03:54:24.703Z,91.80
2018-12-17T03:55:05.106Z,91.90
2018-12-17T03:55:43.045Z,92.00
2018-12-17T03:56:23.043Z,92.00
2018-12-17T03:57:03.959Z,92.10
2018-12-17T03:57:41.968Z,92.10
2018-12-17T03:58:20.150Z,92.10
2018-12-17T03:58:59.375Z,92.10
2018-12-17T03:59:39.039Z,92.10
2018-12-17T04:00:17.034Z,92.10
2018-12-17T04:00:57.331Z,91.90
2018-12-17T04:01:36.101Z,92.00
2018-12-17T04:02:15.078Z,91.90
2018-12-17T04:02:58.324Z,91.90
2018-12-17T04:03:37.307Z,91.90
2018-12-17T04:04:15.690Z,92.00
2018-12-17T04:04:57.545Z,92.00
2018-12-17T04:05:36.908Z,92.00
2018-12-17T04:06:15.977Z,92.10
2018-12-17T04:06:54.597Z,92.00
2018-12-17T04:07:33.548Z,92.10
2018-12-17T04:08:12.742Z,92.10
2018-12-17T04:08:51.305Z,92.20
2018-12-17T04:09:33.756Z,92.30
2018-12-17T04:10:12.504Z,92.20
2018-12-17T04:10:51.068Z,92.30
2018-12-17T04:11:32.377Z,92.30
2018-12-17T04:12:14.290Z,92.30
2018-12-17T04:12:53.572Z,92.20
2018-12-17T04:13:33.516Z,92.30
2018-12-17T04:14:13.249Z,92.30
2018-12-17T04:14:52.087Z,92.30
2018-12-17T04:15:30.642Z,92.30
2018-12-17T04:16:09.348Z,92.30
2018-12-17T04:16:48.503Z,92.30
2018-12-17T04:17:28.053Z,92.30
2018-12-17T04:18:07.798Z,92.30
2018-12-17T04:18:46.689Z,92.30
2018-12-17T04:19:25.508Z,92.30
2018-12-17T04:20:04.052Z,92.30
2018-12-17T04:20:42.589Z,92.40
2018-12-17T04:21:21.329Z,92.40
2018-12-17T04:21:59.729Z,92.40
2018-12-17T04:22:38.283Z,92.30
2018-12-17T04:23:17.949Z,92.30
2018-12-17T04:24:03.359Z,92.40
2018-12-17T04:24:41.962Z,92.40
2018-12-17T04:25:23.358Z,92.40
2018-12-17T04:26:03.389Z,92.30
2018-12-17T04:26:42.133Z,92.30
2018-12-17T04:27:23.904Z,92.30
2018-12-17T04:28:02.628Z,92.30
2018-12-17T04:28:41.357Z,92.60
2018-12-17T04:29:20.538Z,92.40
2018-12-17T04:29:59.222Z,92.30
2018-12-17T04:30:37.738Z,92.20
2018-12-17T04:31:21.128Z,92.30
2018-12-17T04:31:59.306Z,92.30
2018-12-17T04:32:37.685Z,92.30
2018-12-17T04:33:15.969Z,92.20
2018-12-17T04:33:55.489Z,92.30
2018-12-17T04:34:34.143Z,92.20
2018-12-17T04:35:12.677Z,92.10
2018-12-17T04:35:54.436Z,92.10
2018-12-17T04:36:33.404Z,92.00
2018-12-17T04:37:12.004Z,92.10
2018-12-17T04:37:54.333Z,92.00
2018-12-17T04:38:33.409Z,92.00
2018-12-17T04:39:12.239Z,92.10
2018-12-17T04:39:55.710Z,92.10
2018-12-17T04:40:35.264Z,92.30
2018-12-17T04:41:14.131Z,92.30
2018-12-17T04:41:57.899Z,92.40
2018-12-17T04:42:36.708Z,92.50
2018-12-17T04:43:15.409Z,92.70
2018-12-17T04:43:54.450Z,92.80
2018-12-17T04:44:35.798Z,92.70
2018-12-17T04:45:14.584Z,93.20
2018-12-17T04:45:53.510Z,92.80
2018-12-17T04:46:36.897Z,92.70
2018-12-17T04:47:15.238Z,92.70
2018-12-17T04:47:53.428Z,92.70
2018-12-17T04:48:36.030Z,92.80
2018-12-17T04:49:14.792Z,92.70
2018-12-17T04:49:53.601Z,92.80
2018-12-17T04:50:35.431Z,92.80
2018-12-17T04:51:14.885Z,92.80
2018-12-17T04:51:53.619Z,92.30
2018-12-17T04:52:32.181Z,92.60
2018-12-17T04:53:10.757Z,92.60
2018-12-17T04:53:49.578Z,92.60
2018-12-17T04:54:36.374Z,92.60
2018-12-17T04:55:14.971Z,93.00
2018-12-17T04:55:54.065Z,92.70
2018-12-17T04:56:32.963Z,92.70
2018-12-17T04:57:14.485Z,92.60
2018-12-17T04:57:53.064Z,92.60
2018-12-17T04:58:31.782Z,92.50
2018-12-17T04:59:14.773Z,92.50
2018-12-17T04:59:54.813Z,92.50
2018-12-17T05:00:33.116Z,92.70
2018-12-17T05:01:15.793Z,92.70
2018-12-17T05:01:53.940Z,92.70
2018-12-17T05:02:32.909Z,92.80
2018-12-17T05:03:11.466Z,92.80
2018-12-17T05:03:49.977Z,92.70
2018-12-17T05:04:28.640Z,92.70
2018-12-17T05:05:07.196Z,92.80
2018-12-17T05:05:46.835Z,92.90
2018-12-17T05:06:25.481Z,93.50
2018-12-17T05:07:04.009Z,93.20
2018-12-17T05:07:45.044Z,92.90
2018-12-17T05:08:25.008Z,92.80
2018-12-17T05:09:04.079Z,92.90
2018-12-17T05:09:44.372Z,93.00
2018-12-17T05:10:23.358Z,93.10
2018-12-17T05:11:02.416Z,93.00
2018-12-17T05:11:43.008Z,93.00
2018-12-17T05:12:23.595Z,92.90
2018-12-17T05:13:01.705Z,92.90
2018-12-17T05:13:39.781Z,92.90
2018-12-17T05:14:23.310Z,93.00
2018-12-17T05:15:03.785Z,93.10
2018-12-17T05:15:42.044Z,93.00
2018-12-17T05:16:21.950Z,92.90
2018-12-17T05:17:00.007Z,92.90
2018-12-17T05:17:39.246Z,92.90
2018-12-17T05:18:17.345Z,92.90
2018-12-17T05:18:55.921Z,92.90
2018-12-17T05:19:34.076Z,93.00
2018-12-17T05:20:12.023Z,93.10
2018-12-17T05:20:51.736Z,93.10
2018-12-17T05:21:30.007Z,93.00
2018-12-17T05:22:08.133Z,93.00
2018-12-17T05:22:46.209Z,93.10
2018-12-17T05:23:24.897Z,93.20
2018-12-17T05:24:03.921Z,93.20
2018-12-17T05:24:43.341Z,93.60
2018-12-17T05:26:12.717Z,93.20
2018-12-17T05:26:54.775Z,93.20
2018-12-17T05:27:34.017Z,93.60
2018-12-17T05:28:18.048Z,93.30
2018-12-17T05:28:57.354Z,93.30
2018-12-17T05:29:36.412Z,93.20
2018-12-17T05:30:14.933Z,93.90
2018-12-17T05:30:53.780Z,94.00
2018-12-17T05:31:33.828Z,93.70
2018-12-17T05:32:12.453Z,93.60
2018-12-17T05:32:56.845Z,93.60
2018-12-17T05:33:35.587Z,93.50
2018-12-17T05:34:14.795Z,93.80
2018-12-17T05:34:54.309Z,93.80
2018-12-17T05:35:32.755Z,93.70
2018-12-17T05:36:11.254Z,94.30
2018-12-17T05:36:50.246Z,94.30
2018-12-17T05:37:29.185Z,94.50
2018-12-17T05:38:07.617Z,94.30
2018-12-17T05:38:54.225Z,94.50
2018-12-17T05:39:34.189Z,94.40
2018-12-17T05:40:12.808Z,94.90
2018-12-17T05:40:51.941Z,94.40
2018-12-17T05:41:31.982Z,94.20
2018-12-17T05:42:11.142Z,94.10
2018-12-17T05:42:49.607Z,94.00
2018-12-17T05:43:34.954Z,94.40
2018-12-17T05:44:13.269Z,94.10
2018-12-17T05:44:51.221Z,94.10
2018-12-17T05:45:40.182Z,94.20
2018-12-17T05:46:21.661Z,94.10
2018-12-17T05:46:59.682Z,95.00
2018-12-17T05:47:42.249Z,94.80
2018-12-17T05:48:21.598Z,94.70
2018-12-17T05:49:03.566Z,94.80
2018-12-17T05:49:42.553Z,94.70
2018-12-17T05:50:20.447Z,94.50
2018-12-17T05:50:59.764Z,94.40
2018-12-17T05:51:38.260Z,94.20
2018-12-17T05:52:16.713Z,94.10
2018-12-17T05:52:56.146Z,93.90
2018-12-17T05:53:34.104Z,93.90
2018-12-17T05:54:13.846Z,93.80
2018-12-17T05:54:53.359Z,93.90
2018-12-17T05:55:31.452Z,94.00
2018-12-17T05:56:15.476Z,93.70
2018-12-17T05:56:55.523Z,93.60
2018-12-17T05:57:35.049Z,93.70
2018-12-17T05:58:15.993Z,93.60
2018-12-17T05:58:54.738Z,93.70
2018-12-17T05:59:35.782Z,93.70
2018-12-17T06:00:15.280Z,93.70
2018-12-17T06:00:59.043Z,93.70
2018-12-17T06:01:45.598Z,93.80
2018-12-17T06:02:33.584Z,94.00
2018-12-17T06:03:11.516Z,93.80
2018-12-17T06:03:56.579Z,93.80
2018-12-17T06:04:41.443Z,93.80
2018-12-17T06:05:21.894Z,93.80
2018-12-17T06:05:59.950Z,93.80
2018-12-17T06:06:37.963Z,93.80
2018-12-17T06:07:16.480Z,93.70
2018-12-17T06:07:54.583Z,93.70
2018-12-17T06:08:34.813Z,93.70
2018-12-17T06:09:17.300Z,93.70
2018-12-17T06:09:56.717Z,93.70
2018-12-17T06:10:35.750Z,93.80
2018-12-17T06:11:15.580Z,93.80
2018-12-17T06:11:55.499Z,93.80
2018-12-17T06:12:34.728Z,93.80
2018-12-17T06:13:16.921Z,93.70
2018-12-17T06:14:41.385Z,93.60
2018-12-17T06:15:19.420Z,93.90
2018-12-17T06:15:59.704Z,93.90
2018-12-17T06:16:42.204Z,93.90
2018-12-17T06:17:28.705Z,93.90
2018-12-17T06:18:07.609Z,93.90
2018-12-17T06:18:45.696Z,93.80
2018-12-17T06:19:25.047Z,93.90
2018-12-17T06:20:04.475Z,93.80
2018-12-17T06:20:43.457Z,93.70
2018-12-17T06:21:24.136Z,93.70
2018-12-17T06:22:03.132Z,93.60
2018-12-17T06:22:43.904Z,93.50
2018-12-17T06:23:22.565Z,93.60
2018-12-17T06:24:03.191Z,93.70
2018-12-17T06:24:42.950Z,93.60
2018-12-17T06:25:26.310Z,93.60
2018-12-17T06:26:05.226Z,93.50
2018-12-17T06:27:36.879Z,93.80
2018-12-17T06:29:10.871Z,93.90
2018-12-17T06:29:56.137Z,94.00
2018-12-17T06:30:37.160Z,94.10
2018-12-17T06:31:15.620Z,94.10
2018-12-17T06:31:58.993Z,94.00
2018-12-17T06:32:38.776Z,93.90
2018-12-17T06:33:19.915Z,93.90
2018-12-17T06:33:58.818Z,93.80
2018-12-17T06:34:40.069Z,93.80
2018-12-17T06:35:19.869Z,93.80
2018-12-17T06:35:59.236Z,93.80
2018-12-17T06:36:39.168Z,93.80
2018-12-17T06:37:18.801Z,93.80
2018-12-17T06:37:57.699Z,93.80
2018-12-17T06:39:26.472Z,93.80
2018-12-17T06:40:13.807Z,93.80
2018-12-17T06:40:58.178Z,93.80
2018-12-17T06:41:37.859Z,93.60
2018-12-17T06:42:19.866Z,93.60
2018-12-17T06:43:02.870Z,93.60
2018-12-17T06:44:31.425Z,93.60
2018-12-17T06:45:16.524Z,93.70
2018-12-17T06:46:02.465Z,93.70
2018-12-17T06:46:50.069Z,93.70
2018-12-17T06:47:36.597Z,93.70
2018-12-17T06:48:22.761Z,93.70
2018-12-17T06:49:05.071Z,93.70
2018-12-17T06:49:47.978Z,93.70
2018-12-17T06:50:33.444Z,93.80
2018-12-17T06:51:15.242Z,94.20
2018-12-17T06:52:43.477Z,93.90
2018-12-17T06:53:32.437Z,94.00
2018-12-17T06:54:12.879Z,94.30
2018-12-17T06:54:54.760Z,94.00
2018-12-17T06:55:36.089Z,94.00
2018-12-17T06:56:59.970Z,94.00
2018-12-17T06:57:41.942Z,93.90
2018-12-17T06:59:10.345Z,93.90
2018-12-17T06:59:52.680Z,93.90
2018-12-17T07:00:36.638Z,94.00
2018-12-17T07:01:14.976Z,94.00
2018-12-17T07:02:00.278Z,93.90
2018-12-17T07:02:43.860Z,93.80
2018-12-17T07:04:09.846Z,93.60
2018-12-17T07:04:55.451Z,93.60
2018-12-17T07:05:40.602Z,93.90
2018-12-17T07:06:19.501Z,93.60
2018-12-17T07:07:01.325Z,93.60
2018-12-17T07:07:39.481Z,93.60
2018-12-17T07:09:12.469Z,93.40
2018-12-17T07:11:27.799Z,93.40
2018-12-17T07:12:11.166Z,93.50
2018-12-17T07:12:49.194Z,93.50
2018-12-17T07:13:29.386Z,93.40
2018-12-17T07:14:08.309Z,93.40
2018-12-17T07:14:46.396Z,93.50
2018-12-17T07:15:24.520Z,93.40
2018-12-17T07:16:02.477Z,93.40
2018-12-17T07:16:40.487Z,93.40
2018-12-17T07:17:19.477Z,93.80
2018-12-17T07:17:58.784Z,93.50
2018-12-17T07:18:36.689Z,93.40
2018-12-17T07:19:15.608Z,93.40
2018-12-17T07:19:54.643Z,93.50
2018-12-17T07:20:32.982Z,93.40
2018-12-17T07:21:11.011Z,93.30
2018-12-17T07:21:53.310Z,93.50
2018-12-17T07:22:39.758Z,93.20
2018-12-17T07:23:20.547Z,93.20
2018-12-17T07:24:00.304Z,93.20
2018-12-17T07:24:44.642Z,93.10
2018-12-17T07:25:22.998Z,93.10
2018-12-17T07:26:06.949Z,93.00
2018-12-17T07:26:53.993Z,93.10
2018-12-17T07:27:39.188Z,93.20
2018-12-17T07:28:20.790Z,93.00
2018-12-17T07:29:03.430Z,93.10
2018-12-17T07:29:41.961Z,93.00
2018-12-17T07:30:19.970Z,93.10
2018-12-17T07:30:58.367Z,93.00
2018-12-17T07:31:39.347Z,92.90
2018-12-17T07:32:18.613Z,92.90
2018-12-17T07:32:56.956Z,92.90
2018-12-17T07:33:36.266Z,92.80
2018-12-17T07:34:14.808Z,92.90
2018-12-17T07:34:52.940Z,92.80
2018-12-17T07:35:32.325Z,92.90
2018-12-17T07:36:11.401Z,92.90
2018-12-17T07:36:49.345Z,92.90
2018-12-17T07:37:35.047Z,92.90
2018-12-17T07:38:14.565Z,92.90
2018-12-17T07:38:57.179Z,92.90
2018-12-17T07:39:47.381Z,92.90
2018-12-17T07:41:24.681Z,92.80
2018-12-17T07:42:06.524Z,92.90
2018-12-17T07:42:52.156Z,93.00
2018-12-17T07:43:35.875Z,93.20
2018-12-17T07:44:26.728Z,92.90
2018-12-17T07:45:12.883Z,92.90
2018-12-17T07:45:58.276Z,92.90
2018-12-17T07:46:48.607Z,92.90
2018-12-17T07:47:28.329Z,92.90
2018-12-17T07:48:56.746Z,92.90
2018-12-17T07:49:42.810Z,93.00
2018-12-17T07:51:12.680Z,92.90
2018-12-17T07:51:54.768Z,92.80
2018-12-17T07:52:43.164Z,92.80
2018-12-17T07:53:28.125Z,92.80
2018-12-17T07:54:11.329Z,92.80
2018-12-17T07:55:03.935Z,92.80
2018-12-17T07:56:01.721Z,92.80
2018-12-17T07:56:45.812Z,92.70
2018-12-17T07:58:13.071Z,92.80
2018-12-17T07:58:59.680Z,92.80
2018-12-17T07:59:49.360Z,92.80
2018-12-17T08:01:34.001Z,92.90
2018-12-17T08:02:12.113Z,92.90
2018-12-17T08:02:51.152Z,92.90
2018-12-17T08:03:32.249Z,92.80
2018-12-17T08:04:11.769Z,92.70
2018-12-17T08:04:58.341Z,92.50
2018-12-17T08:05:36.903Z,92.40
2018-12-17T08:06:17.915Z,92.30
2018-12-17T08:06:57.669Z,92.20
2018-12-17T08:07:37.588Z,92.10
2018-12-17T08:08:16.946Z,92.00
2018-12-17T08:08:57.838Z,91.80
2018-12-17T08:09:36.755Z,91.70
2018-12-17T08:10:17.275Z,91.50
2018-12-17T08:10:55.858Z,91.20
2018-12-17T08:11:35.151Z,90.30
2018-12-17T08:12:17.753Z,90.70
2018-12-17T08:13:04.885Z,89.10
2018-12-17T08:13:43.700Z,88.50
2018-12-17T08:14:22.208Z,88.10
2018-12-17T08:15:02.242Z,88.30
2018-12-17T08:16:34.185Z,88.60
2018-12-17T08:17:20.889Z,88.60
2018-12-17T08:18:24.531Z,88.60
2018-12-17T08:19:02.796Z,88.50
2018-12-17T08:19:44.985Z,88.60
2018-12-17T08:20:35.231Z,88.40
2018-12-17T08:21:15.916Z,88.50
2018-12-17T08:21:54.007Z,88.50
2018-12-17T08:22:44.834Z,88.50
2018-12-17T08:23:29.456Z,88.70
2018-12-17T08:24:09.423Z,88.90
2018-12-17T08:24:49.980Z,89.10
2018-12-17T08:25:37.313Z,89.10
2018-12-17T08:26:34.013Z,89.40
2018-12-17T08:27:19.219Z,89.30
2018-12-17T08:28:08.206Z,89.40
2018-12-17T08:28:57.539Z,89.50
2018-12-17T08:29:41.397Z,89.30
2018-12-17T08:30:24.779Z,89.30
2018-12-17T08:31:03.779Z,89.70
2018-12-17T08:31:43.646Z,90.00
2018-12-17T08:32:21.633Z,89.80
2018-12-17T08:33:00.413Z,89.60
2018-12-17T08:33:39.469Z,89.30
2018-12-17T08:34:21.048Z,88.80
2018-12-17T08:35:05.339Z,88.40
2018-12-17T08:35:51.354Z,87.40
2018-12-17T08:36:31.426Z,87.60
2018-12-17T08:37:10.174Z,87.00
2018-12-17T08:37:48.586Z,87.00
2018-12-17T08:38:28.198Z,87.50
2018-12-17T08:39:14.541Z,86.60
2018-12-17T08:39:53.700Z,86.70
2018-12-17T08:40:38.157Z,86.50
2018-12-17T08:41:16.875Z,86.70
2018-12-17T08:41:56.387Z,87.00
2018-12-17T08:42:35.491Z,86.80
2018-12-17T08:43:13.436Z,87.80
2018-12-17T08:43:53.422Z,87.20
2018-12-17T08:44:35.704Z,86.40
2018-12-17T08:45:23.313Z,86.40
2018-12-17T08:46:01.599Z,86.80
2018-12-17T08:46:39.614Z,86.20
2018-12-17T08:47:18.500Z,86.30
2018-12-17T08:47:58.809Z,86.20
2018-12-17T08:48:38.584Z,86.20
2018-12-17T08:49:18.121Z,86.40
2018-12-17T08:49:59.403Z,86.50
2018-12-17T08:50:39.217Z,86.80
2018-12-17T08:51:18.012Z,86.90
2018-12-17T08:52:02.954Z,86.90
2018-12-17T08:52:41.661Z,87.20
2018-12-17T08:53:21.097Z,87.50
2018-12-17T08:54:00.142Z,88.00
2018-12-17T08:54:39.763Z,88.00